sensor_id;sensor_type;location;lat;lon;timestamp;pressure;altitude;pressure_sealevel;temperature;humidity
35577;BME280;21680;52.400;16.920;2023-06-24T00:01:23;101096.91;;;17.32;76.13
35577;BME280;21680;52.400;16.920;2023-06-24T00:03:48;101101.21;;;17.29;76.17
35577;BME280;21680;52.400;16.920;2023-06-24T00:06:21;101098.00;;;17.26;76.28
35577;BME280;21680;52.400;16.920;2023-06-24T00:08:48;101100.75;;;17.26;76.26
35577;BME280;21680;52.400;16.920;2023-06-24T00:11:14;101098.60;;;17.25;76.40
35577;BME280;21680;52.400;16.920;2023-06-24T00:13:40;101098.11;;;17.24;76.33
35577;BME280;21680;52.400;16.920;2023-06-24T00:16:05;101094.65;;;17.25;76.62
35577;BME280;21680;52.400;16.920;2023-06-24T00:18:34;101095.81;;;17.26;76.45
35577;BME280;21680;52.400;16.920;2023-06-24T00:21:00;101097.85;;;17.26;76.49
35577;BME280;21680;52.400;16.920;2023-06-24T00:23:29;101095.81;;;17.27;76.57
35577;BME280;21680;52.400;16.920;2023-06-24T00:26:01;101100.73;;;17.29;76.52
35577;BME280;21680;52.400;16.920;2023-06-24T00:28:27;101101.45;;;17.29;76.41
35577;BME280;21680;52.400;16.920;2023-06-24T00:30:52;101100.04;;;17.28;76.48
35577;BME280;21680;52.400;16.920;2023-06-24T00:33:18;101103.16;;;17.30;76.33
35577;BME280;21680;52.400;16.920;2023-06-24T00:35:45;101101.77;;;17.29;76.50
35577;BME280;21680;52.400;16.920;2023-06-24T00:38:10;101102.80;;;17.27;76.49
35577;BME280;21680;52.400;16.920;2023-06-24T00:40:37;101102.21;;;17.28;76.54
35577;BME280;21680;52.400;16.920;2023-06-24T00:43:03;101105.17;;;17.27;76.51
35577;BME280;21680;52.400;16.920;2023-06-24T00:45:29;101107.45;;;17.26;76.48
35577;BME280;21680;52.400;16.920;2023-06-24T00:47:58;101105.20;;;17.24;76.52
35577;BME280;21680;52.400;16.920;2023-06-24T00:50:24;101108.95;;;17.24;76.56
35577;BME280;21680;52.400;16.920;2023-06-24T00:52:49;101111.31;;;17.24;76.53
35577;BME280;21680;52.400;16.920;2023-06-24T00:55:16;101115.28;;;17.24;76.54
35577;BME280;21680;52.400;16.920;2023-06-24T00:57:47;101120.84;;;17.25;76.38
35577;BME280;21680;52.400;16.920;2023-06-24T01:00:21;101124.63;;;17.25;76.22
35577;BME280;21680;52.400;16.920;2023-06-24T01:02:48;101129.46;;;17.26;76.18
35577;BME280;21680;52.400;16.920;2023-06-24T01:05:13;101129.81;;;17.23;76.23
35577;BME280;21680;52.400;16.920;2023-06-24T01:07:40;101122.50;;;17.22;76.08
35577;BME280;21680;52.400;16.920;2023-06-24T01:10:07;101123.85;;;17.20;76.14
35577;BME280;21680;52.400;16.920;2023-06-24T01:12:37;101122.67;;;17.18;76.07
35577;BME280;21680;52.400;16.920;2023-06-24T01:15:09;101122.21;;;17.17;76.06
35577;BME280;21680;52.400;16.920;2023-06-24T01:20:58;101126.42;;;17.16;75.90
35577;BME280;21680;52.400;16.920;2023-06-24T01:23:44;101130.01;;;17.17;75.74
35577;BME280;21680;52.400;16.920;2023-06-24T01:26:28;101135.64;;;17.19;75.61
35577;BME280;21680;52.400;16.920;2023-06-24T01:29:09;101143.27;;;17.22;75.57
35577;BME280;21680;52.400;16.920;2023-06-24T01:34:53;101148.49;;;17.22;75.39
35577;BME280;21680;52.400;16.920;2023-06-24T01:37:28;101152.90;;;17.24;75.36
35577;BME280;21680;52.400;16.920;2023-06-24T01:42:33;101152.80;;;17.25;75.15
35577;BME280;21680;52.400;16.920;2023-06-24T01:45:00;101154.10;;;17.25;75.08
35577;BME280;21680;52.400;16.920;2023-06-24T01:47:27;101152.52;;;17.24;74.97
35577;BME280;21680;52.400;16.920;2023-06-24T01:49:55;101150.27;;;17.25;74.78
35577;BME280;21680;52.400;16.920;2023-06-24T01:52:22;101156.00;;;17.26;74.72
35577;BME280;21680;52.400;16.920;2023-06-24T01:54:49;101153.09;;;17.26;74.57
35577;BME280;21680;52.400;16.920;2023-06-24T01:57:17;101151.69;;;17.26;74.40
35577;BME280;21680;52.400;16.920;2023-06-24T01:59:45;101154.02;;;17.26;74.43
35577;BME280;21680;52.400;16.920;2023-06-24T02:02:12;101158.42;;;17.25;74.30
35577;BME280;21680;52.400;16.920;2023-06-24T02:04:38;101157.41;;;17.24;74.31
35577;BME280;21680;52.400;16.920;2023-06-24T02:07:05;101158.83;;;17.24;74.23
35577;BME280;21680;52.400;16.920;2023-06-24T02:09:32;101160.38;;;17.25;74.21
35577;BME280;21680;52.400;16.920;2023-06-24T02:12:00;101160.23;;;17.25;74.10
35577;BME280;21680;52.400;16.920;2023-06-24T02:14:27;101162.31;;;17.23;74.13
35577;BME280;21680;52.400;16.920;2023-06-24T02:16:55;101159.08;;;17.23;74.07
35577;BME280;21680;52.400;16.920;2023-06-24T02:19:24;101162.04;;;17.25;74.11
35577;BME280;21680;52.400;16.920;2023-06-24T02:21:52;101163.41;;;17.26;74.18
35577;BME280;21680;52.400;16.920;2023-06-24T02:24:19;101164.64;;;17.26;74.03
35577;BME280;21680;52.400;16.920;2023-06-24T02:26:44;101169.23;;;17.25;73.93
35577;BME280;21680;52.400;16.920;2023-06-24T02:29:12;101164.84;;;17.26;73.93
35577;BME280;21680;52.400;16.920;2023-06-24T02:31:38;101168.25;;;17.27;74.09
35577;BME280;21680;52.400;16.920;2023-06-24T02:34:03;101166.99;;;17.26;73.91
35577;BME280;21680;52.400;16.920;2023-06-24T02:36:29;101168.41;;;17.27;73.94
35577;BME280;21680;52.400;16.920;2023-06-24T02:38:54;101165.66;;;17.27;73.97
35577;BME280;21680;52.400;16.920;2023-06-24T02:41:19;101164.38;;;17.28;73.92
35577;BME280;21680;52.400;16.920;2023-06-24T02:43:44;101164.23;;;17.27;73.81
35577;BME280;21680;52.400;16.920;2023-06-24T02:46:10;101161.36;;;17.24;73.66
35577;BME280;21680;52.400;16.920;2023-06-24T02:48:37;101161.15;;;17.25;73.72
35577;BME280;21680;52.400;16.920;2023-06-24T02:51:06;101165.86;;;17.24;73.69
35577;BME280;21680;52.400;16.920;2023-06-24T02:53:32;101171.42;;;17.22;73.68
35577;BME280;21680;52.400;16.920;2023-06-24T02:55:58;101177.73;;;17.22;73.61
35577;BME280;21680;52.400;16.920;2023-06-24T02:58:24;101181.23;;;17.21;73.60
35577;BME280;21680;52.400;16.920;2023-06-24T03:00:58;101185.52;;;17.18;73.48
35577;BME280;21680;52.400;16.920;2023-06-24T03:03:24;101193.13;;;17.15;73.55
35577;BME280;21680;52.400;16.920;2023-06-24T03:05:50;101198.20;;;17.15;73.54
35577;BME280;21680;52.400;16.920;2023-06-24T03:08:16;101204.21;;;17.17;73.72
35577;BME280;21680;52.400;16.920;2023-06-24T03:10:42;101208.63;;;17.18;73.69
35577;BME280;21680;52.400;16.920;2023-06-24T03:13:08;101211.36;;;17.18;73.62
35577;BME280;21680;52.400;16.920;2023-06-24T03:15:33;101218.48;;;17.17;73.74
35577;BME280;21680;52.400;16.920;2023-06-24T03:17:58;101222.02;;;17.16;73.71
35577;BME280;21680;52.400;16.920;2023-06-24T03:20:23;101220.81;;;17.15;73.80
35577;BME280;21680;52.400;16.920;2023-06-24T03:22:49;101227.60;;;17.13;73.90
35577;BME280;21680;52.400;16.920;2023-06-24T03:25:14;101230.06;;;17.11;74.00
35577;BME280;21680;52.400;16.920;2023-06-24T03:27:39;101229.77;;;17.07;74.10
35577;BME280;21680;52.400;16.920;2023-06-24T03:30:05;101228.03;;;17.06;74.21
35577;BME280;21680;52.400;16.920;2023-06-24T03:32:31;101228.32;;;17.04;74.29
35577;BME280;21680;52.400;16.920;2023-06-24T03:34:56;101230.54;;;17.03;74.34
35577;BME280;21680;52.400;16.920;2023-06-24T03:37:21;101230.27;;;17.02;74.44
35577;BME280;21680;52.400;16.920;2023-06-24T03:39:46;101226.23;;;17.00;74.51
35577;BME280;21680;52.400;16.920;2023-06-24T03:42:12;101225.02;;;16.99;74.62
35577;BME280;21680;52.400;16.920;2023-06-24T03:44:37;101225.58;;;16.99;74.79
35577;BME280;21680;52.400;16.920;2023-06-24T03:47:03;101224.02;;;16.98;74.95
35577;BME280;21680;52.400;16.920;2023-06-24T03:49:28;101223.33;;;17.00;74.83
35577;BME280;21680;52.400;16.920;2023-06-24T03:51:54;101226.11;;;17.02;74.89
35577;BME280;21680;52.400;16.920;2023-06-24T03:54:19;101227.08;;;17.04;74.87
35577;BME280;21680;52.400;16.920;2023-06-24T03:56:45;101230.47;;;17.04;74.89
35577;BME280;21680;52.400;16.920;2023-06-24T03:59:10;101230.70;;;17.06;74.99
35577;BME280;21680;52.400;16.920;2023-06-24T04:01:35;101231.44;;;17.06;74.99
35577;BME280;21680;52.400;16.920;2023-06-24T04:04:01;101231.44;;;17.06;75.05
35577;BME280;21680;52.400;16.920;2023-06-24T04:06:26;101230.53;;;17.06;75.11
35577;BME280;21680;52.400;16.920;2023-06-24T04:08:52;101231.96;;;17.07;75.13
35577;BME280;21680;52.400;16.920;2023-06-24T04:11:17;101232.30;;;17.07;75.29
35577;BME280;21680;52.400;16.920;2023-06-24T04:13:43;101237.94;;;17.06;75.36
35577;BME280;21680;52.400;16.920;2023-06-24T04:16:09;101237.59;;;17.06;75.47
35577;BME280;21680;52.400;16.920;2023-06-24T04:18:34;101240.54;;;17.08;75.58
35577;BME280;21680;52.400;16.920;2023-06-24T04:21:02;101243.36;;;17.09;75.55
35577;BME280;21680;52.400;16.920;2023-06-24T04:23:27;101243.75;;;17.09;75.54
35577;BME280;21680;52.400;16.920;2023-06-24T04:25:52;101248.38;;;17.10;75.75
35577;BME280;21680;52.400;16.920;2023-06-24T04:28:18;101250.33;;;17.10;75.94
35577;BME280;21680;52.400;16.920;2023-06-24T04:30:43;101249.96;;;17.11;75.95
35577;BME280;21680;52.400;16.920;2023-06-24T04:33:08;101253.21;;;17.10;75.92
35577;BME280;21680;52.400;16.920;2023-06-24T04:35:33;101255.86;;;17.11;75.96
35577;BME280;21680;52.400;16.920;2023-06-24T04:37:58;101255.35;;;17.11;76.07
35577;BME280;21680;52.400;16.920;2023-06-24T04:40:24;101260.36;;;17.15;76.07
35577;BME280;21680;52.400;16.920;2023-06-24T04:42:49;101254.53;;;17.18;76.20
35577;BME280;21680;52.400;16.920;2023-06-24T04:45:14;101254.30;;;17.22;76.04
35577;BME280;21680;52.400;16.920;2023-06-24T04:47:40;101257.90;;;17.23;76.00
35577;BME280;21680;52.400;16.920;2023-06-24T04:50:06;101258.06;;;17.26;75.95
35577;BME280;21680;52.400;16.920;2023-06-24T04:52:34;101263.66;;;17.26;75.97
35577;BME280;21680;52.400;16.920;2023-06-24T04:54:59;101265.00;;;17.24;76.00
35577;BME280;21680;52.400;16.920;2023-06-24T04:57:29;101271.06;;;17.26;76.01
35577;BME280;21680;52.400;16.920;2023-06-24T04:59:56;101271.00;;;17.30;75.90
35577;BME280;21680;52.400;16.920;2023-06-24T05:02:21;101267.61;;;17.32;76.03
35577;BME280;21680;52.400;16.920;2023-06-24T05:04:47;101262.06;;;17.31;75.90
35577;BME280;21680;52.400;16.920;2023-06-24T05:07:12;101263.20;;;17.33;75.99
35577;BME280;21680;52.400;16.920;2023-06-24T05:09:38;101260.17;;;17.36;76.03
35577;BME280;21680;52.400;16.920;2023-06-24T05:12:07;101259.03;;;17.39;75.91
35577;BME280;21680;52.400;16.920;2023-06-24T05:14:36;101257.23;;;17.45;76.01
35577;BME280;21680;52.400;16.920;2023-06-24T05:17:03;101252.92;;;17.53;76.01
35577;BME280;21680;52.400;16.920;2023-06-24T05:19:28;101255.14;;;17.58;75.86
35577;BME280;21680;52.400;16.920;2023-06-24T05:21:54;101259.75;;;17.62;75.88
35577;BME280;21680;52.400;16.920;2023-06-24T05:24:19;101257.50;;;17.63;75.83
35577;BME280;21680;52.400;16.920;2023-06-24T05:26:47;101262.04;;;17.63;75.71
35577;BME280;21680;52.400;16.920;2023-06-24T05:29:12;101258.23;;;17.63;75.70
35577;BME280;21680;52.400;16.920;2023-06-24T05:31:37;101261.22;;;17.65;75.75
35577;BME280;21680;52.400;16.920;2023-06-24T05:34:03;101262.44;;;17.69;75.74
35577;BME280;21680;52.400;16.920;2023-06-24T05:36:28;101258.66;;;17.74;75.65
35577;BME280;21680;52.400;16.920;2023-06-24T05:38:53;101258.46;;;17.80;75.58
35577;BME280;21680;52.400;16.920;2023-06-24T05:41:19;101263.49;;;17.86;75.47
35577;BME280;21680;52.400;16.920;2023-06-24T05:43:44;101259.48;;;17.95;75.58
35577;BME280;21680;52.400;16.920;2023-06-24T05:46:09;101260.77;;;18.03;75.32
35577;BME280;21680;52.400;16.920;2023-06-24T05:48:34;101260.95;;;18.09;75.33
35577;BME280;21680;52.400;16.920;2023-06-24T05:51:00;101261.17;;;18.13;75.19
35577;BME280;21680;52.400;16.920;2023-06-24T05:53:25;101264.67;;;18.18;75.03
35577;BME280;21680;52.400;16.920;2023-06-24T05:55:50;101265.46;;;18.25;74.91
35577;BME280;21680;52.400;16.920;2023-06-24T05:58:16;101266.27;;;18.32;74.90
35577;BME280;21680;52.400;16.920;2023-06-24T06:00:41;101261.13;;;18.39;74.64
35577;BME280;21680;52.400;16.920;2023-06-24T06:03:06;101260.42;;;18.43;74.42
35577;BME280;21680;52.400;16.920;2023-06-24T06:05:31;101258.92;;;18.44;74.31
35577;BME280;21680;52.400;16.920;2023-06-24T06:07:56;101265.89;;;18.45;73.97
35577;BME280;21680;52.400;16.920;2023-06-24T06:10:22;101265.85;;;18.49;74.00
35577;BME280;21680;52.400;16.920;2023-06-24T06:12:47;101266.48;;;18.56;73.95
35577;BME280;21680;52.400;16.920;2023-06-24T06:15:13;101261.78;;;18.65;73.73
35577;BME280;21680;52.400;16.920;2023-06-24T06:17:38;101259.15;;;18.74;73.71
35577;BME280;21680;52.400;16.920;2023-06-24T06:20:04;101259.81;;;18.77;73.40
35577;BME280;21680;52.400;16.920;2023-06-24T06:22:30;101262.63;;;18.84;73.32
35577;BME280;21680;52.400;16.920;2023-06-24T06:24:57;101267.06;;;18.91;73.14
35577;BME280;21680;52.400;16.920;2023-06-24T06:27:22;101266.30;;;18.91;72.85
35577;BME280;21680;52.400;16.920;2023-06-24T06:29:47;101260.88;;;18.88;72.78
35577;BME280;21680;52.400;16.920;2023-06-24T06:32:12;101267.56;;;18.91;72.71
35577;BME280;21680;52.400;16.920;2023-06-24T06:34:38;101261.09;;;18.93;72.42
35577;BME280;21680;52.400;16.920;2023-06-24T06:37:03;101263.85;;;18.92;72.29
35577;BME280;21680;52.400;16.920;2023-06-24T06:39:29;101267.22;;;18.99;72.26
35577;BME280;21680;52.400;16.920;2023-06-24T06:41:54;101270.16;;;19.06;72.15
35577;BME280;21680;52.400;16.920;2023-06-24T06:44:19;101267.45;;;19.11;71.92
35577;BME280;21680;52.400;16.920;2023-06-24T06:46:44;101266.61;;;19.15;71.79
35577;BME280;21680;52.400;16.920;2023-06-24T06:49:10;101265.08;;;19.17;71.64
35577;BME280;21680;52.400;16.920;2023-06-24T06:51:35;101264.08;;;19.18;71.40
35577;BME280;21680;52.400;16.920;2023-06-24T06:54:01;101263.77;;;19.20;71.36
35577;BME280;21680;52.400;16.920;2023-06-24T06:56:26;101267.61;;;19.27;71.28
35577;BME280;21680;52.400;16.920;2023-06-24T06:58:52;101266.40;;;19.29;71.04
35577;BME280;21680;52.400;16.920;2023-06-24T07:01:18;101268.74;;;19.26;70.75
35577;BME280;21680;52.400;16.920;2023-06-24T07:03:43;101269.35;;;19.26;70.78
35577;BME280;21680;52.400;16.920;2023-06-24T07:06:09;101271.36;;;19.26;70.61
35577;BME280;21680;52.400;16.920;2023-06-24T07:08:34;101265.05;;;19.25;70.44
35577;BME280;21680;52.400;16.920;2023-06-24T07:11:00;101265.75;;;19.17;70.19
35577;BME280;21680;52.400;16.920;2023-06-24T07:13:25;101270.20;;;19.13;70.29
35577;BME280;21680;52.400;16.920;2023-06-24T07:15:50;101272.30;;;19.14;70.26
35577;BME280;21680;52.400;16.920;2023-06-24T07:18:16;101271.43;;;19.08;69.94
35577;BME280;21680;52.400;16.920;2023-06-24T07:20:41;101271.31;;;19.00;69.87
35577;BME280;21680;52.400;16.920;2023-06-24T07:23:06;101273.19;;;18.99;69.77
35577;BME280;21680;52.400;16.920;2023-06-24T07:25:31;101269.59;;;18.98;69.62
35577;BME280;21680;52.400;16.920;2023-06-24T07:27:57;101268.09;;;18.94;69.31
35577;BME280;21680;52.400;16.920;2023-06-24T07:30:22;101270.62;;;18.94;69.28
35577;BME280;21680;52.400;16.920;2023-06-24T07:32:47;101270.98;;;18.97;69.32
35577;BME280;21680;52.400;16.920;2023-06-24T07:35:12;101272.64;;;19.04;69.30
35577;BME280;21680;52.400;16.920;2023-06-24T07:37:38;101273.27;;;19.05;69.00
35577;BME280;21680;52.400;16.920;2023-06-24T07:40:06;101274.33;;;19.11;68.95
35577;BME280;21680;52.400;16.920;2023-06-24T07:42:33;101272.21;;;19.18;68.66
35577;BME280;21680;52.400;16.920;2023-06-24T07:44:58;101270.01;;;19.24;68.55
35577;BME280;21680;52.400;16.920;2023-06-24T07:47:23;101279.73;;;19.28;68.31
35577;BME280;21680;52.400;16.920;2023-06-24T07:49:48;101280.54;;;19.34;67.87
35577;BME280;21680;52.400;16.920;2023-06-24T07:52:14;101280.00;;;19.39;67.72
35577;BME280;21680;52.400;16.920;2023-06-24T07:54:39;101281.02;;;19.42;67.90
35577;BME280;21680;52.400;16.920;2023-06-24T07:57:04;101279.65;;;19.46;67.66
35577;BME280;21680;52.400;16.920;2023-06-24T07:59:29;101275.88;;;19.54;67.58
35577;BME280;21680;52.400;16.920;2023-06-24T08:01:55;101278.28;;;19.69;67.56
35577;BME280;21680;52.400;16.920;2023-06-24T08:04:20;101274.65;;;19.87;67.72
35577;BME280;21680;52.400;16.920;2023-06-24T08:06:45;101276.39;;;20.02;67.39
35577;BME280;21680;52.400;16.920;2023-06-24T08:09:11;101272.49;;;20.13;67.06
35577;BME280;21680;52.400;16.920;2023-06-24T08:11:36;101272.88;;;20.18;66.80
35577;BME280;21680;52.400;16.920;2023-06-24T08:14:01;101278.80;;;20.26;66.97
35577;BME280;21680;52.400;16.920;2023-06-24T08:16:27;101279.41;;;20.37;66.76
35577;BME280;21680;52.400;16.920;2023-06-24T08:18:52;101285.64;;;20.47;66.71
35577;BME280;21680;52.400;16.920;2023-06-24T08:21:18;101280.25;;;20.51;66.16
35577;BME280;21680;52.400;16.920;2023-06-24T08:23:45;101284.55;;;20.52;65.51
35577;BME280;21680;52.400;16.920;2023-06-24T08:26:10;101288.25;;;20.56;65.43
35577;BME280;21680;52.400;16.920;2023-06-24T08:28:35;101284.54;;;20.64;65.10
35577;BME280;21680;52.400;16.920;2023-06-24T08:31:00;101285.70;;;20.77;64.80
35577;BME280;21680;52.400;16.920;2023-06-24T08:33:26;101291.00;;;20.88;64.40
35577;BME280;21680;52.400;16.920;2023-06-24T08:35:51;101288.31;;;20.93;63.61
35577;BME280;21680;52.400;16.920;2023-06-24T08:38:16;101291.95;;;20.97;63.40
35577;BME280;21680;52.400;16.920;2023-06-24T08:40:42;101292.80;;;20.98;63.21
35577;BME280;21680;52.400;16.920;2023-06-24T08:43:09;101291.89;;;21.00;63.23
35577;BME280;21680;52.400;16.920;2023-06-24T08:45:34;101287.47;;;21.04;63.00
35577;BME280;21680;52.400;16.920;2023-06-24T08:48:00;101284.98;;;21.07;61.94
35577;BME280;21680;52.400;16.920;2023-06-24T08:50:43;101280.05;;;21.15;61.91
35577;BME280;21680;52.400;16.920;2023-06-24T08:53:10;101273.52;;;21.24;61.45
35577;BME280;21680;52.400;16.920;2023-06-24T08:55:40;101273.41;;;21.28;61.09
35577;BME280;21680;52.400;16.920;2023-06-24T08:58:08;101272.70;;;21.37;61.12
35577;BME280;21680;52.400;16.920;2023-06-24T09:00:34;101270.39;;;21.43;60.47
35577;BME280;21680;52.400;16.920;2023-06-24T09:03:00;101270.57;;;21.44;60.27
35577;BME280;21680;52.400;16.920;2023-06-24T09:05:25;101269.19;;;21.45;60.55
35577;BME280;21680;52.400;16.920;2023-06-24T09:07:50;101269.49;;;21.41;60.36
35577;BME280;21680;52.400;16.920;2023-06-24T09:10:32;101272.06;;;21.34;60.18
35577;BME280;21680;52.400;16.920;2023-06-24T09:13:00;101273.85;;;21.27;59.97
35577;BME280;21680;52.400;16.920;2023-06-24T09:15:29;101272.23;;;21.25;60.05
35577;BME280;21680;52.400;16.920;2023-06-24T09:17:54;101272.59;;;21.29;60.02
35577;BME280;21680;52.400;16.920;2023-06-24T09:20:20;101268.77;;;21.45;60.32
35577;BME280;21680;52.400;16.920;2023-06-24T09:22:46;101270.77;;;21.61;60.00
35577;BME280;21680;52.400;16.920;2023-06-24T09:25:17;101275.02;;;21.69;59.48
35577;BME280;21680;52.400;16.920;2023-06-24T09:27:47;101272.92;;;21.71;59.26
35577;BME280;21680;52.400;16.920;2023-06-24T09:30:25;101269.38;;;21.79;58.47
35577;BME280;21680;52.400;16.920;2023-06-24T09:32:52;101268.75;;;21.86;57.85
35577;BME280;21680;52.400;16.920;2023-06-24T09:35:19;101261.77;;;21.87;57.52
35577;BME280;21680;52.400;16.920;2023-06-24T09:37:52;101262.90;;;21.93;57.06
35577;BME280;21680;52.400;16.920;2023-06-24T09:40:18;101259.40;;;22.06;57.01
35577;BME280;21680;52.400;16.920;2023-06-24T09:42:51;101265.42;;;22.21;56.76
35577;BME280;21680;52.400;16.920;2023-06-24T09:45:30;101266.08;;;22.30;56.20
35577;BME280;21680;52.400;16.920;2023-06-24T09:47:56;101274.98;;;22.24;55.82
35577;BME280;21680;52.400;16.920;2023-06-24T09:50:25;101277.31;;;22.13;55.44
35577;BME280;21680;52.400;16.920;2023-06-24T09:52:50;101269.28;;;22.07;55.05
35577;BME280;21680;52.400;16.920;2023-06-24T09:55:17;101273.57;;;22.08;54.49
35577;BME280;21680;52.400;16.920;2023-06-24T09:57:50;101269.88;;;22.11;54.43
35577;BME280;21680;52.400;16.920;2023-06-24T10:00:19;101265.04;;;22.23;54.75
35577;BME280;21680;52.400;16.920;2023-06-24T10:02:45;101265.47;;;22.38;54.68
35577;BME280;21680;52.400;16.920;2023-06-24T10:05:12;101266.38;;;22.40;53.49
35577;BME280;21680;52.400;16.920;2023-06-24T10:07:39;101269.77;;;22.32;53.69
35577;BME280;21680;52.400;16.920;2023-06-24T10:10:07;101266.33;;;22.31;53.67
35577;BME280;21680;52.400;16.920;2023-06-24T10:12:36;101271.92;;;22.39;53.23
35577;BME280;21680;52.400;16.920;2023-06-24T10:15:02;101270.59;;;22.44;53.34
35577;BME280;21680;52.400;16.920;2023-06-24T10:17:29;101272.56;;;22.40;52.86
35577;BME280;21680;52.400;16.920;2023-06-24T10:19:55;101267.07;;;22.45;52.67
35577;BME280;21680;52.400;16.920;2023-06-24T10:22:23;101267.66;;;22.57;52.83
35577;BME280;21680;52.400;16.920;2023-06-24T10:24:53;101271.45;;;22.60;52.36
35577;BME280;21680;52.400;16.920;2023-06-24T10:27:22;101273.23;;;22.54;51.84
35577;BME280;21680;52.400;16.920;2023-06-24T10:29:49;101271.31;;;22.55;51.94
35577;BME280;21680;52.400;16.920;2023-06-24T10:32:15;101267.66;;;22.64;52.14
35577;BME280;21680;52.400;16.920;2023-06-24T10:34:43;101268.97;;;22.78;51.74
35577;BME280;21680;52.400;16.920;2023-06-24T10:37:23;101266.89;;;22.79;50.47
35577;BME280;21680;52.400;16.920;2023-06-24T10:39:56;101268.62;;;22.74;50.14
35577;BME280;21680;52.400;16.920;2023-06-24T10:42:29;101266.73;;;22.68;50.49
35577;BME280;21680;52.400;16.920;2023-06-24T10:47:22;101260.41;;;23.02;51.08
35577;BME280;21680;52.400;16.920;2023-06-24T10:49:48;101255.84;;;23.21;50.46
35577;BME280;21680;52.400;16.920;2023-06-24T10:52:13;101260.09;;;23.41;50.43
35577;BME280;21680;52.400;16.920;2023-06-24T10:54:40;101259.68;;;23.49;50.01
35577;BME280;21680;52.400;16.920;2023-06-24T10:57:10;101254.83;;;23.47;50.08
35577;BME280;21680;52.400;16.920;2023-06-24T10:59:39;101254.81;;;23.45;50.19
35577;BME280;21680;52.400;16.920;2023-06-24T11:02:07;101259.81;;;23.50;50.10
35577;BME280;21680;52.400;16.920;2023-06-24T11:04:33;101262.77;;;23.54;49.88
35577;BME280;21680;52.400;16.920;2023-06-24T11:06:59;101254.36;;;23.46;49.76
35577;BME280;21680;52.400;16.920;2023-06-24T11:09:25;101254.69;;;23.46;49.56
35577;BME280;21680;52.400;16.920;2023-06-24T11:11:51;101255.46;;;23.48;48.26
35577;BME280;21680;52.400;16.920;2023-06-24T11:14:17;101253.69;;;23.47;48.59
35577;BME280;21680;52.400;16.920;2023-06-24T11:16:45;101242.60;;;23.55;47.92
35577;BME280;21680;52.400;16.920;2023-06-24T11:19:10;101241.49;;;23.70;48.54
35577;BME280;21680;52.400;16.920;2023-06-24T11:21:35;101239.27;;;23.92;48.68
35577;BME280;21680;52.400;16.920;2023-06-24T11:24:02;101247.17;;;23.92;47.99
35577;BME280;21680;52.400;16.920;2023-06-24T11:26:28;101244.99;;;23.95;47.69
35577;BME280;21680;52.400;16.920;2023-06-24T11:28:53;101241.27;;;24.04;47.96
35577;BME280;21680;52.400;16.920;2023-06-24T11:31:19;101241.58;;;24.15;47.24
35577;BME280;21680;52.400;16.920;2023-06-24T11:33:48;101236.72;;;24.24;47.38
35577;BME280;21680;52.400;16.920;2023-06-24T11:36:17;101232.23;;;24.36;47.24
35577;BME280;21680;52.400;16.920;2023-06-24T11:38:42;101234.48;;;24.43;46.51
35577;BME280;21680;52.400;16.920;2023-06-24T11:41:08;101235.42;;;24.27;46.12
35577;BME280;21680;52.400;16.920;2023-06-24T11:43:34;101235.95;;;24.23;46.54
35577;BME280;21680;52.400;16.920;2023-06-24T11:45:59;101234.73;;;24.35;46.50
35577;BME280;21680;52.400;16.920;2023-06-24T11:48:30;101234.04;;;24.34;46.41
35577;BME280;21680;52.400;16.920;2023-06-24T11:50:55;101237.67;;;24.22;45.92
35577;BME280;21680;52.400;16.920;2023-06-24T11:53:40;101233.26;;;24.02;46.17
35577;BME280;21680;52.400;16.920;2023-06-24T11:56:07;101227.19;;;24.01;45.54
35577;BME280;21680;52.400;16.920;2023-06-24T11:58:34;101228.20;;;24.08;45.64
35577;BME280;21680;52.400;16.920;2023-06-24T12:01:03;101224.16;;;24.28;45.35
35577;BME280;21680;52.400;16.920;2023-06-24T12:03:32;101218.38;;;24.53;45.02
35577;BME280;21680;52.400;16.920;2023-06-24T12:05:58;101220.13;;;24.62;44.52
35577;BME280;21680;52.400;16.920;2023-06-24T12:08:24;101221.30;;;24.59;44.37
35577;BME280;21680;52.400;16.920;2023-06-24T12:10:49;101225.80;;;24.38;43.80
35577;BME280;21680;52.400;16.920;2023-06-24T12:13:14;101223.81;;;24.14;43.94
35577;BME280;21680;52.400;16.920;2023-06-24T12:15:40;101221.98;;;24.16;44.60
35577;BME280;21680;52.400;16.920;2023-06-24T12:18:06;101221.27;;;24.50;45.06
35577;BME280;21680;52.400;16.920;2023-06-24T12:20:32;101217.54;;;24.91;45.29
35577;BME280;21680;52.400;16.920;2023-06-24T12:22:58;101216.21;;;25.13;45.03
35577;BME280;21680;52.400;16.920;2023-06-24T12:25:24;101215.20;;;25.14;45.11
35577;BME280;21680;52.400;16.920;2023-06-24T12:27:49;101216.80;;;25.09;44.09
35577;BME280;21680;52.400;16.920;2023-06-24T12:30:15;101218.79;;;25.13;43.85
35577;BME280;21680;52.400;16.920;2023-06-24T12:32:42;101223.05;;;25.31;43.62
35577;BME280;21680;52.400;16.920;2023-06-24T12:35:08;101224.79;;;25.32;43.08
35577;BME280;21680;52.400;16.920;2023-06-24T12:37:34;101217.98;;;25.06;42.78
35577;BME280;21680;52.400;16.920;2023-06-24T12:40:00;101220.22;;;24.94;43.20
35577;BME280;21680;52.400;16.920;2023-06-24T12:42:26;101218.91;;;25.04;43.36
35577;BME280;21680;52.400;16.920;2023-06-24T12:44:52;101219.57;;;24.97;42.68
35577;BME280;21680;52.400;16.920;2023-06-24T12:47:18;101223.45;;;24.83;42.56
35577;BME280;21680;52.400;16.920;2023-06-24T12:49:43;101223.95;;;24.81;42.11